createdAt,value
2023-04-05T00:02:03.696Z,20.83
2023-04-05T00:04:35.713Z,20.83
2023-04-05T00:07:09.156Z,20.77
2023-04-05T00:09:38.884Z,20.76
2023-04-05T00:12:07.962Z,20.61
2023-04-05T00:14:36.675Z,20.59
2023-04-05T00:17:05.739Z,20.64
2023-04-05T00:19:36.145Z,20.65
2023-04-05T00:22:05.878Z,20.68
2023-04-05T00:24:35.067Z,20.64
2023-04-05T00:27:03.869Z,20.62
2023-04-05T00:29:32.943Z,20.59
2023-04-05T00:32:01.817Z,20.54
2023-04-05T00:34:30.895Z,20.47
2023-04-05T00:37:00.206Z,20.44
2023-04-05T00:39:29.420Z,20.46
2023-04-05T00:41:58.296Z,20.45
2023-04-05T00:44:27.777Z,20.40
2023-04-05T00:46:57.318Z,20.38
2023-04-05T00:49:26.413Z,20.41
2023-04-05T00:51:55.386Z,20.38
2023-04-05T00:54:26.621Z,20.48
2023-04-05T00:56:57.573Z,20.54
2023-04-05T00:59:32.450Z,20.49
2023-04-05T01:02:18.062Z,20.58
2023-04-05T01:04:57.263Z,20.54
2023-04-05T01:07:35.354Z,20.59
2023-04-05T01:10:08.430Z,20.54
2023-04-05T01:12:39.988Z,20.55
2023-04-05T01:15:09.724Z,20.53
2023-04-05T01:17:40.211Z,20.55
2023-04-05T01:20:12.761Z,20.64
2023-04-05T01:23:04.346Z,20.77
2023-04-05T01:25:37.941Z,20.63
2023-04-05T01:28:44.272Z,20.74
2023-04-05T01:31:28.347Z,20.66
2023-04-05T01:34:30.461Z,20.82
2023-04-05T01:37:04.695Z,20.93
2023-04-05T01:39:36.034Z,20.84
2023-04-05T01:42:07.028Z,20.83
2023-04-05T01:44:36.206Z,20.60
2023-04-05T01:47:05.094Z,20.71
2023-04-05T01:49:34.498Z,20.63
2023-04-05T01:52:03.459Z,20.87
2023-04-05T01:54:32.504Z,20.75
2023-04-05T01:57:01.481Z,20.79
2023-04-05T01:59:30.918Z,20.78
2023-04-05T02:02:01.493Z,20.71
2023-04-05T02:04:30.458Z,21.07
2023-04-05T02:06:59.436Z,20.93
2023-04-05T02:09:28.481Z,20.90
2023-04-05T02:11:57.616Z,21.13
2023-04-05T02:14:27.066Z,21.14
2023-04-05T02:16:57.494Z,21.12
2023-04-05T02:19:26.955Z,21.27
2023-04-05T02:21:55.984Z,21.36
2023-04-05T02:24:25.139Z,21.05
2023-04-05T02:26:54.038Z,21.27
2023-04-05T02:29:23.002Z,21.42
2023-04-05T02:31:51.935Z,21.66
2023-04-05T02:34:22.725Z,21.72
2023-04-05T02:36:55.085Z,21.49
2023-04-05T02:39:24.215Z,21.32
2023-04-05T02:41:53.060Z,21.38
2023-04-05T02:44:22.004Z,21.52
2023-04-05T02:46:54.834Z,21.69
2023-04-05T02:49:29.864Z,21.69
2023-04-05T02:52:01.906Z,21.60
2023-04-05T02:54:31.714Z,21.64
2023-04-05T02:57:04.357Z,21.66
2023-04-05T02:59:43.685Z,21.98
2023-04-05T03:02:14.576Z,22.16
2023-04-05T03:04:45.748Z,22.23
2023-04-05T03:07:19.586Z,21.94
2023-04-05T03:09:49.953Z,22.15
2023-04-05T03:12:19.944Z,22.21
2023-04-05T03:14:49.066Z,22.39
2023-04-05T03:17:22.240Z,22.42
2023-04-05T03:20:01.747Z,22.51
2023-04-05T03:22:31.170Z,22.41
2023-04-05T03:25:00.298Z,22.57
2023-04-05T03:27:30.092Z,22.35
2023-04-05T03:30:07.152Z,22.68
2023-04-05T03:32:40.837Z,22.94
2023-04-05T03:35:20.160Z,23.04
2023-04-05T03:37:49.538Z,23.03
2023-04-05T03:40:19.260Z,23.06
2023-04-05T03:42:49.816Z,23.17
2023-04-05T03:45:23.336Z,23.36
2023-04-05T03:47:55.984Z,23.30
2023-04-05T03:50:25.523Z,23.41
2023-04-05T03:52:54.737Z,23.54
2023-04-05T03:55:25.190Z,23.30
2023-04-05T03:57:55.124Z,23.69
2023-04-05T04:00:29.429Z,23.75
2023-04-05T04:03:11.697Z,23.89
2023-04-05T04:05:44.711Z,23.85
2023-04-05T04:08:14.498Z,24.06
2023-04-05T04:10:43.346Z,24.03
2023-04-05T04:13:25.904Z,24.15
2023-04-05T04:16:05.065Z,24.32
2023-04-05T04:18:55.330Z,24.43
2023-04-05T04:21:40.428Z,24.51
2023-04-05T04:24:21.602Z,24.57
2023-04-05T04:26:50.709Z,24.59
2023-04-05T04:29:47.595Z,24.79
2023-04-05T04:32:54.173Z,24.87
2023-04-05T04:35:41.817Z,24.90
2023-04-05T04:38:35.583Z,25.01
2023-04-05T04:41:21.031Z,25.17
2023-04-05T04:44:07.940Z,25.37
2023-04-05T04:47:04.134Z,25.47
2023-04-05T04:49:47.718Z,25.39
2023-04-05T04:52:16.895Z,25.56
2023-04-05T04:54:48.144Z,25.65
2023-04-05T04:57:17.278Z,25.69
2023-04-05T04:59:46.117Z,25.82
2023-04-05T05:02:15.071Z,25.50
2023-04-05T05:04:44.628Z,25.82
2023-04-05T05:07:13.757Z,26.10
2023-04-05T05:09:42.535Z,26.11
2023-04-05T05:12:11.615Z,26.25
2023-04-05T05:14:40.402Z,26.35
2023-04-05T05:17:09.579Z,26.41
2023-04-05T05:19:38.518Z,26.39
2023-04-05T05:22:07.520Z,26.68
2023-04-05T05:24:36.377Z,26.58
2023-04-05T05:27:05.556Z,26.53
2023-04-05T05:29:34.302Z,26.85
2023-04-05T05:32:03.775Z,26.78
2023-04-05T05:34:32.741Z,27.10
2023-04-05T05:37:01.856Z,27.07
2023-04-05T05:39:30.611Z,27.07
2023-04-05T05:41:59.954Z,26.89
2023-04-05T05:44:29.580Z,27.35
2023-04-05T05:46:59.861Z,27.47
2023-04-05T05:49:28.992Z,27.45
2023-04-05T05:51:58.180Z,27.55
2023-04-05T05:54:27.675Z,27.70
2023-04-05T05:56:56.824Z,27.59
2023-04-05T05:59:26.430Z,27.90
2023-04-05T06:01:56.621Z,28.06
2023-04-05T06:04:25.738Z,28.11
2023-04-05T06:06:55.650Z,28.16
2023-04-05T06:09:24.833Z,27.75
2023-04-05T06:11:56.742Z,28.01
2023-04-05T06:14:26.167Z,27.96
2023-04-05T06:16:54.922Z,27.95
2023-04-05T06:19:24.203Z,28.39
2023-04-05T06:21:58.588Z,28.23
2023-04-05T06:24:28.253Z,28.06
2023-04-05T06:26:57.755Z,28.26
2023-04-05T06:29:27.126Z,28.30
2023-04-05T06:31:56.570Z,28.42
2023-04-05T06:34:25.672Z,28.43
2023-04-05T06:40:54.531Z,28.96
2023-04-05T06:43:23.472Z,28.54
2023-04-05T06:45:52.434Z,28.97
2023-04-05T06:48:22.307Z,28.99
2023-04-05T06:51:06.557Z,29.31
2023-04-05T06:53:36.294Z,29.28
2023-04-05T06:56:05.556Z,29.30
2023-04-05T06:58:34.567Z,29.17
2023-04-05T07:01:05.228Z,29.25
2023-04-05T07:03:34.810Z,29.30
2023-04-05T07:06:03.957Z,29.33
2023-04-05T07:08:34.411Z,29.44
2023-04-05T07:11:03.532Z,29.46
2023-04-05T07:13:34.026Z,29.60
2023-04-05T07:16:04.384Z,29.67
2023-04-05T07:18:33.428Z,29.64
2023-04-05T07:21:02.642Z,29.85
2023-04-05T07:23:32.250Z,29.80
2023-04-05T07:26:06.699Z,29.74
2023-04-05T07:28:37.510Z,29.61
2023-04-05T07:31:08.145Z,29.87
2023-04-05T07:33:37.229Z,29.90
2023-04-05T07:36:06.526Z,29.71
2023-04-05T07:38:35.492Z,29.81
2023-04-05T07:41:06.989Z,30.15
2023-04-05T07:43:35.877Z,30.28
2023-04-05T07:46:08.127Z,30.02
2023-04-05T07:48:37.365Z,30.02
2023-04-05T07:51:08.226Z,29.72
2023-04-05T07:53:38.774Z,29.75
2023-04-05T07:56:12.953Z,29.96
2023-04-05T07:58:42.966Z,29.75
2023-04-05T08:01:14.896Z,29.93
2023-04-05T08:04:02.638Z,30.07
2023-04-05T08:06:32.213Z,30.07
2023-04-05T08:09:01.483Z,30.03
2023-04-05T08:11:30.585Z,29.90
2023-04-05T08:13:59.735Z,29.92
2023-04-05T08:16:29.580Z,30.03
2023-04-05T08:18:58.670Z,30.11
2023-04-05T08:21:28.494Z,30.32
2023-04-05T08:23:57.523Z,30.34
2023-04-05T08:26:26.917Z,30.36
2023-04-05T08:28:56.013Z,30.17
2023-04-05T08:31:25.197Z,29.71
2023-04-05T08:33:56.531Z,30.02
2023-04-05T08:36:25.625Z,30.24
2023-04-05T08:38:54.450Z,30.39
2023-04-05T08:41:25.544Z,30.16
2023-04-05T08:43:59.550Z,30.20
2023-04-05T08:46:30.475Z,30.30
2023-04-05T08:49:00.009Z,30.27
2023-04-05T08:51:29.301Z,30.34
2023-04-05T08:53:58.458Z,30.36
2023-04-05T08:56:31.319Z,30.50
2023-04-05T08:59:12.717Z,30.40
2023-04-05T09:01:49.965Z,30.51
2023-04-05T09:04:32.562Z,30.46
2023-04-05T09:07:04.201Z,30.41
2023-04-05T09:09:37.374Z,30.37
2023-04-05T09:12:08.669Z,30.41
2023-04-05T09:14:39.948Z,30.53
2023-04-05T09:17:09.710Z,30.55
2023-04-05T09:19:38.811Z,30.52
2023-04-05T09:22:10.111Z,30.32
2023-04-05T09:24:47.899Z,30.49
2023-04-05T09:27:22.097Z,30.42
2023-04-05T09:29:59.464Z,30.38
2023-04-05T09:32:32.148Z,30.34
2023-04-05T09:35:05.564Z,30.08
2023-04-05T09:37:38.217Z,30.27
2023-04-05T09:40:08.260Z,30.36
2023-04-05T09:42:47.854Z,30.28
2023-04-05T09:45:19.613Z,30.34
2023-04-05T09:47:58.501Z,30.26
2023-04-05T09:50:28.200Z,30.36
2023-04-05T09:53:16.790Z,30.35
2023-04-05T09:55:47.915Z,30.42
2023-04-05T09:58:24.219Z,30.47
2023-04-05T10:01:09.743Z,30.14
2023-04-05T10:03:51.777Z,30.45
2023-04-05T10:10:28.406Z,30.57
2023-04-05T10:12:59.146Z,30.45
2023-04-05T10:16:32.974Z,30.33
2023-04-05T10:19:04.032Z,30.23
2023-04-05T10:21:43.225Z,30.33
2023-04-05T10:24:15.083Z,30.20
2023-04-05T10:27:00.760Z,30.40
2023-04-05T10:29:48.496Z,30.43
2023-04-05T10:32:32.689Z,30.41
2023-04-05T10:35:24.245Z,30.35
2023-04-05T10:38:01.385Z,30.55
2023-04-05T10:40:34.268Z,30.42
2023-04-05T10:43:05.620Z,30.38
2023-04-05T10:45:36.465Z,30.27
2023-04-05T10:48:16.736Z,30.41
2023-04-05T10:50:48.567Z,30.24
2023-04-05T10:53:18.492Z,30.16
2023-04-05T10:55:48.073Z,30.15
2023-04-05T10:58:17.808Z,30.00
2023-04-05T11:00:49.663Z,30.11
2023-04-05T11:03:44.005Z,30.05
2023-04-05T11:06:31.577Z,30.03
2023-04-05T11:09:22.437Z,30.00
2023-04-05T11:11:53.557Z,29.89
2023-04-05T11:14:27.148Z,29.84
2023-04-05T11:16:59.170Z,29.79
2023-04-05T11:19:48.304Z,29.83
2023-04-05T11:22:28.187Z,29.78
2023-04-05T11:25:05.445Z,29.75
2023-04-05T11:27:38.352Z,29.51
2023-04-05T11:30:08.166Z,29.56
2023-04-05T11:32:44.639Z,29.58
2023-04-05T11:35:26.646Z,29.56
2023-04-05T11:38:09.979Z,29.40
2023-04-05T11:40:44.447Z,29.40
2023-04-05T11:43:13.949Z,29.31
2023-04-05T11:45:44.321Z,29.23
2023-04-05T11:48:15.492Z,29.18
2023-04-05T11:50:46.415Z,29.14
2023-04-05T11:53:19.626Z,29.17
2023-04-05T11:55:53.702Z,29.10
2023-04-05T11:58:26.872Z,29.00
2023-04-05T12:01:03.491Z,28.94
2023-04-05T12:03:32.984Z,28.85
2023-04-05T12:06:03.798Z,28.84
2023-04-05T12:08:51.502Z,28.82
2023-04-05T12:11:30.482Z,28.81
2023-04-05T12:14:03.367Z,28.75
2023-04-05T12:16:32.326Z,28.66
2023-04-05T12:19:02.180Z,28.62
2023-04-05T12:21:31.515Z,28.53
2023-04-05T12:24:00.444Z,28.48
2023-04-05T12:26:35.025Z,28.42
2023-04-05T12:29:06.126Z,28.45
2023-04-05T12:31:46.404Z,28.41
2023-04-05T12:34:16.524Z,28.28
2023-04-05T12:36:49.774Z,28.18
2023-04-05T12:39:19.043Z,28.21
2023-04-05T12:41:59.811Z,28.36
2023-04-05T12:44:32.643Z,28.28
2023-04-05T12:47:06.289Z,28.11
2023-04-05T12:49:41.467Z,28.13
2023-04-05T12:52:10.495Z,27.99
2023-04-05T12:54:40.360Z,27.92
2023-04-05T12:57:13.169Z,27.88
2023-04-05T12:59:42.096Z,27.92
2023-04-05T13:02:10.915Z,27.78
2023-04-05T13:04:39.931Z,27.71
2023-04-05T13:07:08.674Z,27.63
2023-04-05T13:09:37.964Z,27.59
2023-04-05T13:12:07.519Z,27.67
2023-04-05T13:14:36.507Z,27.67
2023-04-05T13:17:05.403Z,27.57
2023-04-05T13:19:34.411Z,27.54
2023-04-05T13:22:03.270Z,27.38
2023-04-05T13:24:32.345Z,27.41
2023-04-05T13:27:01.231Z,27.40
2023-04-05T13:29:30.243Z,27.33
2023-04-05T13:31:59.021Z,27.29
2023-04-05T13:34:28.313Z,27.31
2023-04-05T13:36:57.054Z,27.22
2023-04-05T13:39:26.095Z,27.04
2023-04-05T13:41:55.025Z,26.91
2023-04-05T13:44:24.208Z,26.48
2023-04-05T13:46:52.896Z,26.38
2023-04-05T13:49:22.514Z,25.76
2023-04-05T13:51:51.406Z,25.42
2023-04-05T13:54:20.382Z,24.92
2023-04-05T13:56:49.367Z,24.96
2023-04-05T13:59:20.343Z,24.84
2023-04-05T14:01:52.357Z,24.51
2023-04-05T14:04:21.781Z,24.37
2023-04-05T14:06:50.539Z,24.10
2023-04-05T14:09:19.610Z,23.94
2023-04-05T14:11:49.462Z,23.62
2023-04-05T14:14:18.537Z,23.63
2023-04-05T14:16:47.818Z,23.53
2023-04-05T14:19:17.345Z,23.17
2023-04-05T14:21:47.295Z,23.20
2023-04-05T14:24:16.358Z,23.26
2023-04-05T14:26:46.956Z,23.02
2023-04-05T14:29:20.106Z,23.17
2023-04-05T14:31:49.552Z,22.91
2023-04-05T14:34:18.452Z,22.97
2023-04-05T14:36:47.581Z,22.80
2023-04-05T14:39:16.466Z,22.79
2023-04-05T14:41:50.942Z,22.74
2023-04-05T14:44:20.054Z,22.67
2023-04-05T14:46:50.834Z,22.29
2023-04-05T14:49:19.958Z,22.36
2023-04-05T14:51:48.817Z,22.22
2023-04-05T14:54:17.998Z,22.15
2023-04-05T14:56:46.890Z,21.99
2023-04-05T14:59:15.921Z,21.78
2023-04-05T15:01:46.450Z,22.00
2023-04-05T15:04:15.687Z,22.23
2023-04-05T15:06:44.529Z,22.39
2023-04-05T15:09:13.502Z,22.52
2023-04-05T15:11:42.519Z,22.82
2023-04-05T15:14:18.224Z,22.97
2023-04-05T15:16:57.956Z,23.02
2023-04-05T15:19:26.982Z,22.92
2023-04-05T15:21:55.969Z,23.13
2023-04-05T15:24:26.530Z,23.13
2023-04-05T15:27:04.081Z,23.19
2023-04-05T15:30:04.130Z,23.22
2023-04-05T15:32:34.839Z,23.15
2023-04-05T15:35:04.864Z,23.19
2023-04-05T15:37:34.194Z,23.27
2023-04-05T15:40:03.863Z,23.32
2023-04-05T15:42:34.767Z,23.36
2023-04-05T15:45:03.829Z,23.27
2023-04-05T15:47:32.753Z,23.20
2023-04-05T15:50:01.983Z,23.14
2023-04-05T15:52:30.882Z,23.20
2023-04-05T15:54:59.819Z,23.29
2023-04-05T15:57:28.808Z,23.27
2023-04-05T15:59:57.876Z,23.20
2023-04-05T16:02:26.892Z,23.13
2023-04-05T16:04:56.072Z,23.11
2023-04-05T16:07:24.931Z,23.17
2023-04-05T16:09:53.951Z,23.17
2023-04-05T16:12:22.706Z,23.21
2023-04-05T16:14:51.656Z,23.15
2023-04-05T16:17:20.495Z,23.20
2023-04-05T16:19:49.619Z,23.15
2023-04-05T16:22:18.430Z,23.18
2023-04-05T16:24:47.390Z,23.12
2023-04-05T16:27:16.851Z,23.14
2023-04-05T16:29:46.213Z,23.20
2023-04-05T16:32:15.146Z,23.25
2023-04-05T16:34:44.296Z,23.19
2023-04-05T16:37:13.202Z,23.12
2023-04-05T16:39:42.297Z,23.20
2023-04-05T16:42:11.593Z,23.21
2023-04-05T16:44:40.646Z,23.15
2023-04-05T16:47:09.435Z,23.14
2023-04-05T16:49:38.578Z,23.06
2023-04-05T16:52:07.445Z,22.99
2023-04-05T16:54:36.463Z,22.85
2023-04-05T16:57:05.430Z,22.59
2023-04-05T16:59:34.432Z,22.67
2023-04-05T17:02:03.329Z,22.79
2023-04-05T17:04:32.494Z,22.79
2023-04-05T17:07:01.477Z,22.65
2023-04-05T17:09:30.616Z,22.63
2023-04-05T17:11:59.449Z,22.78
2023-04-05T17:14:29.079Z,22.68
2023-04-05T17:16:58.062Z,22.57
2023-04-05T17:19:27.654Z,22.70
2023-04-05T17:21:56.733Z,22.66
2023-04-05T17:24:28.335Z,22.74
2023-04-05T17:26:57.315Z,22.75
2023-04-05T17:29:26.217Z,22.63
2023-04-05T17:31:55.250Z,22.56
2023-04-05T17:34:24.489Z,22.63
2023-04-05T17:36:54.052Z,22.56
2023-04-05T17:39:22.990Z,22.55
2023-04-05T17:41:52.357Z,22.43
2023-04-05T17:44:21.164Z,22.36
2023-04-05T17:47:01.198Z,22.24
2023-04-05T17:49:38.430Z,22.22
2023-04-05T17:52:11.323Z,22.39
2023-04-05T17:54:40.852Z,22.24
2023-04-05T17:57:16.104Z,22.32
2023-04-05T17:59:45.715Z,22.34
2023-04-05T18:02:14.607Z,22.09
2023-04-05T18:04:43.865Z,22.28
2023-04-05T18:07:13.544Z,22.15
2023-04-05T18:09:43.290Z,22.17
2023-04-05T18:12:12.228Z,22.20
2023-04-05T18:14:41.233Z,22.21
2023-04-05T18:17:09.995Z,22.16
2023-04-05T18:19:39.222Z,22.12
2023-04-05T18:22:08.130Z,22.02
2023-04-05T18:24:37.074Z,22.07
2023-04-05T18:27:05.971Z,22.03
2023-04-05T18:29:38.953Z,22.06
2023-04-05T18:32:08.991Z,22.02
2023-04-05T18:34:38.219Z,21.95
2023-04-05T18:37:07.075Z,21.95
2023-04-05T18:39:36.431Z,21.87
2023-04-05T18:42:05.536Z,21.88
2023-04-05T18:44:34.626Z,21.77
2023-04-05T18:47:05.794Z,21.65
2023-04-05T18:49:35.064Z,21.58
2023-04-05T18:52:03.997Z,21.62
2023-04-05T18:54:33.064Z,21.63
2023-04-05T18:57:01.919Z,21.74
2023-04-05T18:59:30.961Z,21.62
2023-04-05T19:01:59.948Z,21.65
2023-04-05T19:04:29.183Z,21.61
2023-04-05T19:06:58.878Z,21.45
2023-04-05T19:09:28.493Z,21.42
2023-04-05T19:11:57.869Z,21.54
2023-04-05T19:14:26.883Z,21.62
2023-04-05T19:16:56.004Z,21.62
2023-04-05T19:19:25.029Z,21.55
2023-04-05T19:21:53.906Z,21.57
2023-04-05T19:24:23.058Z,21.54
2023-04-05T19:26:52.134Z,21.44
2023-04-05T19:29:21.448Z,21.38
2023-04-05T19:31:51.593Z,21.38
2023-04-05T19:34:20.696Z,21.39
2023-04-05T19:36:49.461Z,21.36
2023-04-05T19:39:18.504Z,21.27
2023-04-05T19:41:47.226Z,21.20
2023-04-05T19:44:47.529Z,21.06
2023-04-05T19:47:18.806Z,21.04
2023-04-05T19:49:49.103Z,21.12
2023-04-05T19:52:38.293Z,21.20
2023-04-05T19:55:28.274Z,21.21
2023-04-05T19:57:58.536Z,21.08
2023-04-05T20:00:53.758Z,21.22
2023-04-05T20:03:35.269Z,21.08
2023-04-05T20:06:10.456Z,21.07
2023-04-05T20:08:44.835Z,21.07
2023-04-05T20:11:19.471Z,21.11
2023-04-05T20:13:55.707Z,21.09
2023-04-05T20:16:35.863Z,21.03
2023-04-05T20:19:09.694Z,21.01
2023-04-05T20:21:40.862Z,21.00
2023-04-05T20:24:16.320Z,21.02
2023-04-05T20:26:48.649Z,21.06
2023-04-05T20:29:23.104Z,21.08
2023-04-05T20:31:54.728Z,21.06
2023-04-05T20:34:45.196Z,21.09
2023-04-05T20:37:15.492Z,20.94
2023-04-05T20:39:46.941Z,20.89
2023-04-05T20:42:17.671Z,20.98
2023-04-05T20:44:49.612Z,21.00
2023-04-05T20:47:21.215Z,21.05
2023-04-05T20:49:51.901Z,21.00
2023-04-05T20:52:23.196Z,20.94
2023-04-05T20:54:53.738Z,20.93
2023-04-05T20:57:24.969Z,20.89
2023-04-05T20:59:55.230Z,20.86
2023-04-05T21:02:26.334Z,20.86
2023-04-05T21:04:56.760Z,20.80
2023-04-05T21:07:28.527Z,20.82
2023-04-05T21:09:59.166Z,20.82
2023-04-05T21:12:30.348Z,20.85
2023-04-05T21:15:01.803Z,20.83
2023-04-05T21:17:32.561Z,20.85
2023-04-05T21:20:03.745Z,20.69
2023-04-05T21:22:35.465Z,20.65
2023-04-05T21:25:09.613Z,20.69
2023-04-05T21:27:40.847Z,20.70
2023-04-05T21:30:12.372Z,20.68
2023-04-05T21:32:43.599Z,20.69
2023-04-05T21:35:14.683Z,20.67
2023-04-05T21:37:45.798Z,20.62
2023-04-05T21:40:17.442Z,20.56
2023-04-05T21:42:48.001Z,20.61
2023-04-05T21:45:18.583Z,20.61
2023-04-05T21:47:49.826Z,20.59
2023-04-05T21:50:20.904Z,20.56
2023-04-05T21:52:51.917Z,20.56
2023-04-05T21:55:23.142Z,20.58
2023-04-05T21:57:53.384Z,20.56
2023-04-05T22:00:23.681Z,20.40
2023-04-05T22:02:53.935Z,20.38
2023-04-05T22:05:36.484Z,20.46
2023-04-05T22:08:09.952Z,20.48
2023-04-05T22:10:42.151Z,20.42
2023-04-05T22:13:13.221Z,20.40
2023-04-05T22:15:45.805Z,20.40
2023-04-05T22:18:16.895Z,20.32
2023-04-05T22:20:48.010Z,20.43
2023-04-05T22:23:19.036Z,20.46
2023-04-05T22:25:48.142Z,20.37
2023-04-05T22:28:17.149Z,20.34
2023-04-05T22:30:46.393Z,20.03
2023-04-05T22:33:15.336Z,20.22
2023-04-05T22:35:44.409Z,20.31
2023-04-05T22:38:13.261Z,20.31
2023-04-05T22:40:42.335Z,20.20
2023-04-05T22:43:11.206Z,20.19
2023-04-05T22:45:40.607Z,20.07
2023-04-05T22:48:09.565Z,19.99
2023-04-05T22:50:38.593Z,19.92
2023-04-05T22:53:07.738Z,20.02
2023-04-05T22:55:38.931Z,19.94
2023-04-05T22:58:08.824Z,19.94
2023-04-05T23:00:39.074Z,19.89
2023-04-05T23:03:08.215Z,19.72
2023-04-05T23:05:37.851Z,19.79
2023-04-05T23:08:06.949Z,19.76
2023-04-05T23:10:35.933Z,19.73
2023-04-05T23:13:05.163Z,19.75
2023-04-05T23:15:34.066Z,19.73
2023-04-05T23:18:03.386Z,19.77
2023-04-05T23:20:32.255Z,19.76
2023-04-05T23:23:02.549Z,19.71
2023-04-05T23:25:31.617Z,19.74
2023-04-05T23:28:00.741Z,19.73
2023-04-05T23:30:29.560Z,19.73
2023-04-05T23:32:58.634Z,19.75
2023-04-05T23:35:28.109Z,19.77
2023-04-05T23:37:57.194Z,19.83
2023-04-05T23:40:26.211Z,19.79
2023-04-05T23:42:55.292Z,19.56
2023-04-05T23:45:24.173Z,19.56
2023-04-05T23:47:53.467Z,19.58
2023-04-05T23:50:22.752Z,19.61
2023-04-05T23:52:52.258Z,19.59
2023-04-05T23:55:22.575Z,19.61
2023-04-05T23:57:52.860Z,19.64
